General E. Mosconi Airport
SAVC : rendu visible

Aérodrome :











RETROUVEZ-NOUS SUR...

 
LOGIN :

S'inscrire | Disclaimer

   EN    FR    IT 

 









Légende :    VFR   VFR Marginal   IFR   IFR Intensif   IFR Très Intensif
Visi : 
Plafond : 
>= 8 km
>= 3000ft
5 à 8 km
1000 à 3000 ft
1500m à 5 km
500 à 1000 ft
800 à 1500m
200 à 500 ft
< 800m
< 200 ft
Symboles :   Orages  Brouillard  Fortes neiges  Fortes précipitations  Vent > 20 kt






- Altitude de l'aérodrome : 189 ft
- Code IATA : CRD


SAVC - General E. Mosconi

DERNIER METAR :
  • 270300Z 27007KT CAVOK 11/02 Q1009

METARs EXPIRÉS :
  • 270200Z 29013KT CAVOK 12/03 Q1009
  • 270100Z 23004KT CAVOK 12/03 Q1008

TAF TAF SAVC
Valide du 26 à 18h jusqu'au 27 à 18h UTC


261700Z 2618/2718 27010G25KT CAVOK TX17/2618Z TN07/2710Z
FIR SAVF / Amérique du Sud



MET'MAP, la Météo Aéronautique d'un coup d'oeil ! - Copyright ORBIFLY Décembre 2007 - Disclaimer

ORBIFLY MET'MAP TEAM :

Programmation & Développement : Alexandra Zaïnal
Sur une idée originale de : Baudouin d'Aumeries
Assistance à la programmation : Marc-Olivier Méhu
Soutien technique & logistique : Manuel Goepfert

Contact : metmap@orbifly.com




SOURCES & CREDITS :

   NOAA       Earth
Advisory